createdAt,value
2022-08-20T00:02:16.580Z,22.63
2022-08-20T00:04:45.618Z,22.90
2022-08-20T00:07:14.647Z,22.33
2022-08-20T00:09:43.678Z,23.48
2022-08-20T00:12:14.248Z,24.15
2022-08-20T00:14:42.483Z,21.35
2022-08-20T00:17:12.301Z,21.73
2022-08-20T00:19:40.660Z,21.85
2022-08-20T00:22:09.117Z,22.55
2022-08-20T00:24:38.099Z,22.02
2022-08-20T00:27:06.361Z,19.88
2022-08-20T00:29:34.612Z,22.92
2022-08-20T00:32:03.064Z,24.10
2022-08-20T00:34:32.610Z,22.67
2022-08-20T00:37:00.774Z,23.27
2022-08-20T00:39:30.286Z,23.95
2022-08-20T00:41:59.461Z,23.73
2022-08-20T00:44:28.399Z,23.25
2022-08-20T00:46:56.893Z,21.70
2022-08-20T00:49:28.374Z,22.27
2022-08-20T00:52:02.615Z,24.63
2022-08-20T00:54:37.349Z,24.38
2022-08-20T00:57:11.041Z,23.92
2022-08-20T00:59:43.038Z,23.23
2022-08-20T01:02:17.557Z,23.75
2022-08-20T01:04:49.688Z,24.20
2022-08-20T01:07:20.633Z,22.98
2022-08-20T01:09:58.260Z,22.77
2022-08-20T01:12:29.873Z,24.08
2022-08-20T01:15:00.071Z,24.15
2022-08-20T01:17:32.579Z,23.38
2022-08-20T01:20:06.697Z,23.77
2022-08-20T01:23:08.875Z,23.95
2022-08-20T01:25:49.554Z,24.13
2022-08-20T01:28:22.798Z,23.85
2022-08-20T01:30:51.359Z,25.42
2022-08-20T01:33:21.504Z,23.30
2022-08-20T01:35:51.131Z,24.55
2022-08-20T01:38:19.938Z,24.67
2022-08-20T01:41:27.201Z,23.25
2022-08-20T01:43:58.576Z,24.27
2022-08-20T01:46:30.748Z,24.30
2022-08-20T01:49:01.131Z,25.60
2022-08-20T01:51:31.421Z,23.55
2022-08-20T01:54:00.740Z,23.90
2022-08-20T01:56:32.772Z,24.90
2022-08-20T01:59:03.153Z,22.98
2022-08-20T02:01:46.138Z,22.73
2022-08-20T02:04:16.904Z,23.58
2022-08-20T02:06:57.369Z,22.95
2022-08-20T02:09:27.969Z,23.52
2022-08-20T02:11:58.093Z,23.85
2022-08-20T02:14:27.210Z,24.00
2022-08-20T02:16:58.343Z,23.02
2022-08-20T02:19:32.049Z,23.67
2022-08-20T02:22:06.398Z,24.67
2022-08-20T02:24:35.492Z,24.02
2022-08-20T02:27:05.484Z,23.58
2022-08-20T02:29:33.696Z,24.45
2022-08-20T02:32:32.305Z,23.05
2022-08-20T02:34:50.984Z,23.73
2022-08-20T02:37:19.392Z,23.38
2022-08-20T02:39:48.136Z,22.27
2022-08-20T02:42:18.164Z,24.75
2022-08-20T02:44:46.433Z,21.98
2022-08-20T02:47:14.751Z,21.65
2022-08-20T02:49:43.449Z,22.35
2022-08-20T02:52:11.859Z,21.55
2022-08-20T02:54:40.164Z,22.65
2022-08-20T02:57:13.983Z,22.15
2022-08-20T02:59:44.573Z,22.60
2022-08-20T03:02:14.021Z,22.85
2022-08-20T03:04:42.857Z,24.25
2022-08-20T03:07:11.932Z,24.45
2022-08-20T03:09:40.818Z,24.02
2022-08-20T03:12:09.779Z,22.98
2022-08-20T03:14:38.213Z,21.52
2022-08-20T03:17:08.021Z,23.63
2022-08-20T03:19:36.279Z,22.40
2022-08-20T03:22:04.964Z,22.58
2022-08-20T03:24:33.467Z,21.85
2022-08-20T03:27:01.762Z,23.60
2022-08-20T03:29:30.086Z,22.58
2022-08-20T03:31:59.142Z,23.45
2022-08-20T03:34:28.795Z,22.27
2022-08-20T03:36:57.093Z,22.48
2022-08-20T03:39:25.543Z,22.88
2022-08-20T03:41:53.857Z,22.52
2022-08-20T03:44:22.507Z,22.98
2022-08-20T03:46:51.334Z,23.23
2022-08-20T03:49:19.835Z,23.10
2022-08-20T03:51:57.801Z,23.13
2022-08-20T03:54:31.650Z,22.50
2022-08-20T03:57:02.683Z,22.33
2022-08-20T03:59:33.150Z,23.27
2022-08-20T04:02:02.238Z,23.45
2022-08-20T04:04:30.743Z,23.17
2022-08-20T04:07:00.491Z,23.77
2022-08-20T04:09:30.080Z,25.13
2022-08-20T04:12:00.216Z,24.70
2022-08-20T04:14:29.265Z,23.63
2022-08-20T04:16:58.500Z,24.20
2022-08-20T04:19:28.348Z,23.05
2022-08-20T04:22:01.262Z,23.80
2022-08-20T04:24:32.067Z,23.08
2022-08-20T04:27:02.618Z,24.65
2022-08-20T04:29:32.572Z,23.45
2022-08-20T04:32:02.817Z,24.10
2022-08-20T04:34:35.135Z,24.38
2022-08-20T04:37:05.283Z,24.88
2022-08-20T04:39:34.173Z,24.75
2022-08-20T04:42:02.717Z,25.23
2022-08-20T04:44:30.934Z,24.15
2022-08-20T04:46:59.179Z,24.40
2022-08-20T04:49:27.924Z,23.65
2022-08-20T04:51:56.645Z,24.10
2022-08-20T04:54:26.290Z,25.08
2022-08-20T04:56:54.682Z,22.52
2022-08-20T04:59:22.944Z,23.88
2022-08-20T05:01:51.297Z,24.55
2022-08-20T05:04:20.068Z,24.42
2022-08-20T05:06:49.846Z,25.88
2022-08-20T05:09:18.081Z,24.00
2022-08-20T05:11:47.916Z,21.73
2022-08-20T05:14:16.174Z,24.25
2022-08-20T05:16:44.391Z,23.88
2022-08-20T05:19:14.475Z,24.08
2022-08-20T05:21:42.861Z,23.35
2022-08-20T05:24:12.074Z,23.20
2022-08-20T05:26:40.773Z,24.45
2022-08-20T05:29:10.349Z,25.88
2022-08-20T05:31:39.322Z,24.42
2022-08-20T05:34:11.562Z,25.80
2022-08-20T05:36:42.965Z,24.52
2022-08-20T05:39:13.331Z,24.67
2022-08-20T05:41:42.030Z,24.70
2022-08-20T05:44:13.661Z,25.25
2022-08-20T05:46:45.153Z,25.98
2022-08-20T05:49:16.133Z,24.83
2022-08-20T05:51:45.122Z,24.75
2022-08-20T05:54:14.534Z,24.38
2022-08-20T05:56:43.113Z,24.38
2022-08-20T05:59:14.064Z,24.00
2022-08-20T06:01:43.446Z,26.40
2022-08-20T06:04:28.631Z,28.60
2022-08-20T06:07:02.729Z,25.75
2022-08-20T06:09:32.869Z,24.63
2022-08-20T06:12:06.008Z,25.00
2022-08-20T06:14:36.207Z,27.52
2022-08-20T06:17:06.945Z,25.90
2022-08-20T06:19:36.232Z,24.23
2022-08-20T06:22:17.925Z,25.40
2022-08-20T06:24:49.534Z,23.08
2022-08-20T06:27:18.135Z,23.83
2022-08-20T06:29:48.300Z,25.58
2022-08-20T06:32:17.160Z,25.60
2022-08-20T06:34:50.682Z,24.00
2022-08-20T06:37:23.249Z,25.70
2022-08-20T06:39:56.538Z,24.25
2022-08-20T06:42:24.923Z,25.15
2022-08-20T06:44:54.402Z,24.17
2022-08-20T06:47:23.709Z,26.05
2022-08-20T06:49:52.474Z,26.10
2022-08-20T06:52:20.669Z,24.50
2022-08-20T06:55:11.881Z,24.98
2022-08-20T06:57:40.701Z,27.45
2022-08-20T07:00:14.664Z,25.77
2022-08-20T07:02:43.156Z,26.55
2022-08-20T07:05:11.879Z,25.75
2022-08-20T07:07:40.610Z,26.83
2022-08-20T07:10:11.440Z,26.63
2022-08-20T07:12:39.910Z,27.10
2022-08-20T07:15:12.468Z,25.65
2022-08-20T07:17:41.786Z,26.80
2022-08-20T07:20:13.252Z,25.08
2022-08-20T07:22:42.260Z,23.90
2022-08-20T07:25:14.331Z,25.45
2022-08-20T07:27:44.250Z,24.73
2022-08-20T07:30:34.107Z,25.90
2022-08-20T07:33:22.662Z,27.23
2022-08-20T07:35:51.085Z,26.95
2022-08-20T07:38:24.233Z,24.88
2022-08-20T07:40:53.964Z,26.00
2022-08-20T07:43:24.142Z,28.02
2022-08-20T07:45:55.781Z,26.08
2022-08-20T07:48:27.999Z,24.17
2022-08-20T07:51:01.715Z,24.55
2022-08-20T07:53:34.823Z,21.70
2022-08-20T07:56:05.943Z,24.77
2022-08-20T07:58:35.709Z,23.60
2022-08-20T08:01:06.153Z,24.40
2022-08-20T08:03:40.928Z,23.75
2022-08-20T08:06:29.504Z,23.70
2022-08-20T08:09:04.040Z,24.83
2022-08-20T08:11:34.540Z,25.95
2022-08-20T08:14:04.248Z,25.65
2022-08-20T08:16:35.130Z,25.10
2022-08-20T08:19:07.172Z,24.40
2022-08-20T08:21:35.634Z,22.83
2022-08-20T08:24:04.256Z,23.27
2022-08-20T08:26:33.132Z,24.98
2022-08-20T08:29:01.424Z,24.27
2022-08-20T08:31:29.921Z,26.90
2022-08-20T08:34:00.383Z,24.88
2022-08-20T08:36:28.816Z,25.60
2022-08-20T08:38:57.246Z,25.05
2022-08-20T08:41:31.854Z,22.02
2022-08-20T08:44:05.784Z,25.17
2022-08-20T08:46:40.529Z,22.38
2022-08-20T08:49:13.249Z,22.98
2022-08-20T08:51:44.060Z,22.20
2022-08-20T08:54:17.866Z,21.45
2022-08-20T08:56:49.789Z,22.05
2022-08-20T08:59:19.720Z,21.77
2022-08-20T09:01:56.227Z,20.25
2022-08-20T09:04:31.759Z,21.60
2022-08-20T09:07:02.882Z,21.27
2022-08-20T09:09:35.561Z,22.95
2022-08-20T09:12:07.037Z,22.30
2022-08-20T09:14:35.863Z,21.98
2022-08-20T09:17:05.226Z,21.27
2022-08-20T09:19:34.974Z,20.08
2022-08-20T09:22:09.554Z,20.40
2022-08-20T09:24:38.627Z,20.70
2022-08-20T09:27:07.674Z,20.02
2022-08-20T09:29:36.332Z,19.13
2022-08-20T09:32:06.858Z,22.15
2022-08-20T09:34:38.682Z,23.52
2022-08-20T09:37:07.500Z,21.40
2022-08-20T09:39:36.066Z,22.05
2022-08-20T09:42:11.729Z,20.92
2022-08-20T09:44:40.550Z,22.30
2022-08-20T09:47:08.988Z,19.50
2022-08-20T09:49:38.621Z,21.23
2022-08-20T09:52:09.556Z,20.73
2022-08-20T09:54:46.427Z,21.63
2022-08-20T09:57:16.716Z,20.42
2022-08-20T09:59:47.229Z,20.60
2022-08-20T10:02:15.661Z,22.23
2022-08-20T10:04:45.551Z,23.23
2022-08-20T10:07:16.031Z,23.13
2022-08-20T10:09:44.766Z,21.85
2022-08-20T10:12:13.378Z,21.33
2022-08-20T10:14:41.626Z,21.67
2022-08-20T10:17:10.485Z,20.63
2022-08-20T10:19:39.115Z,20.13
2022-08-20T10:22:08.856Z,21.67
2022-08-20T10:24:37.351Z,21.38
2022-08-20T10:27:06.012Z,20.90
2022-08-20T10:29:34.221Z,20.17
2022-08-20T10:32:12.067Z,19.13
2022-08-20T10:34:41.154Z,19.55
2022-08-20T10:37:11.794Z,19.00
2022-08-20T10:39:40.039Z,19.52
2022-08-20T10:42:08.471Z,21.38
2022-08-20T10:44:36.844Z,21.17
2022-08-20T10:47:21.799Z,22.40
2022-08-20T10:49:52.120Z,20.00
2022-08-20T10:52:21.973Z,20.75
2022-08-20T10:54:50.618Z,19.38
2022-08-20T10:57:20.802Z,20.23
2022-08-20T10:59:51.116Z,20.75
2022-08-20T11:02:20.789Z,20.35
2022-08-20T11:04:50.283Z,19.25
2022-08-20T11:07:22.837Z,18.77
2022-08-20T11:10:13.952Z,19.65
2022-08-20T11:12:45.523Z,19.65
2022-08-20T11:15:15.486Z,18.85
2022-08-20T11:17:44.971Z,18.65
2022-08-20T11:20:15.991Z,18.85
2022-08-20T11:22:45.776Z,20.00
2022-08-20T11:25:14.395Z,19.15
2022-08-20T11:27:45.164Z,18.98
2022-08-20T11:30:17.529Z,18.63
2022-08-20T11:32:45.815Z,17.40
2022-08-20T11:35:41.026Z,18.92
2022-08-20T11:38:04.557Z,18.67
2022-08-20T11:40:32.840Z,17.95
2022-08-20T11:43:17.541Z,18.13
2022-08-20T11:45:50.552Z,18.45
2022-08-20T11:48:19.094Z,19.58
2022-08-20T11:50:48.659Z,17.77
2022-08-20T11:53:18.556Z,19.92
2022-08-20T11:55:48.769Z,91.43
2022-08-20T11:58:17.729Z,96.43
2022-08-20T12:00:45.971Z,45.35
2022-08-20T12:03:14.342Z,40.47
2022-08-20T12:05:45.445Z,31.33
2022-08-20T12:08:24.958Z,29.17
2022-08-20T12:10:57.545Z,25.83
2022-08-20T12:13:47.315Z,22.08
2022-08-20T12:16:15.303Z,21.70
2022-08-20T12:18:43.538Z,20.35
2022-08-20T12:21:11.857Z,19.67
2022-08-20T12:23:40.596Z,20.55
2022-08-20T12:26:10.239Z,18.17
2022-08-20T12:28:38.601Z,18.92
2022-08-20T12:31:07.242Z,18.67
2022-08-20T12:33:35.697Z,18.27
2022-08-20T12:36:04.540Z,19.17
2022-08-20T12:38:33.329Z,20.20
2022-08-20T12:41:02.549Z,18.02
2022-08-20T12:43:32.106Z,19.15
2022-08-20T12:46:00.565Z,18.30
2022-08-20T12:48:28.818Z,17.92
2022-08-20T12:50:57.092Z,18.13
2022-08-20T12:53:25.999Z,21.00
2022-08-20T12:55:54.364Z,17.70
2022-08-20T12:58:22.612Z,20.92
2022-08-20T13:00:52.610Z,19.13
2022-08-20T13:03:21.214Z,18.27
2022-08-20T13:05:49.843Z,19.52
2022-08-20T13:08:19.409Z,19.65
2022-08-20T13:10:48.189Z,18.67
2022-08-20T13:13:20.473Z,18.17
2022-08-20T13:15:51.058Z,18.65
2022-08-20T13:18:21.244Z,19.02
2022-08-20T13:20:49.753Z,18.20
2022-08-20T13:23:18.582Z,18.70
2022-08-20T13:25:46.861Z,20.30
2022-08-20T13:28:15.009Z,18.85
2022-08-20T13:30:43.406Z,20.15
2022-08-20T13:33:11.634Z,21.05
2022-08-20T13:35:41.368Z,19.20
2022-08-20T13:38:09.984Z,19.45
2022-08-20T13:40:38.324Z,20.00
2022-08-20T13:43:07.555Z,17.73
2022-08-20T13:45:41.334Z,18.50
2022-08-20T13:48:15.179Z,18.40
2022-08-20T13:50:46.811Z,18.08
2022-08-20T13:53:16.573Z,19.58
2022-08-20T13:55:46.032Z,18.95
2022-08-20T13:58:14.322Z,18.02
2022-08-20T14:00:42.951Z,17.85
2022-08-20T14:03:12.164Z,17.65
2022-08-20T14:05:42.443Z,19.13
2022-08-20T14:08:18.190Z,18.65
2022-08-20T14:10:51.395Z,17.90
2022-08-20T14:13:21.844Z,18.20
2022-08-20T14:15:50.278Z,17.48
2022-08-20T14:18:18.873Z,17.75
2022-08-20T14:20:47.416Z,15.27
2022-08-20T14:23:17.562Z,17.13
2022-08-20T14:25:48.088Z,15.90
2022-08-20T14:28:18.749Z,17.33
2022-08-20T14:30:52.522Z,16.13
2022-08-20T14:33:21.430Z,16.13
2022-08-20T14:35:49.696Z,15.77
2022-08-20T14:38:19.288Z,16.20
2022-08-20T14:40:50.161Z,15.63
2022-08-20T14:43:18.451Z,15.43
2022-08-20T14:45:46.676Z,14.00
2022-08-20T14:48:15.941Z,15.52
2022-08-20T14:50:44.601Z,14.80
2022-08-20T14:53:12.970Z,14.65
2022-08-20T14:55:43.447Z,15.68
2022-08-20T14:58:13.626Z,13.90
2022-08-20T15:00:43.277Z,14.32
2022-08-20T15:03:13.354Z,14.07
2022-08-20T15:05:41.846Z,14.18
2022-08-20T15:08:11.005Z,13.02
2022-08-20T15:10:40.582Z,14.13
2022-08-20T15:13:10.481Z,13.50
2022-08-20T15:15:39.450Z,12.85
2022-08-20T15:18:08.536Z,12.95
2022-08-20T15:20:38.162Z,14.10
2022-08-20T15:23:08.669Z,11.98
2022-08-20T15:25:38.293Z,12.15
2022-08-20T15:28:08.937Z,11.32
2022-08-20T15:30:40.866Z,12.95
2022-08-20T15:33:10.153Z,12.30
2022-08-20T15:35:38.956Z,11.68
2022-08-20T15:38:07.152Z,10.57
2022-08-20T15:40:35.572Z,8.95
2022-08-20T15:43:06.164Z,8.80
2022-08-20T15:45:36.700Z,9.18
2022-08-20T15:48:12.457Z,7.75
2022-08-20T15:50:57.010Z,6.30
2022-08-20T15:53:31.260Z,6.38
2022-08-20T15:56:07.813Z,6.47
2022-08-20T15:58:47.528Z,6.65
2022-08-20T16:01:26.845Z,6.18
2022-08-20T16:04:22.793Z,5.15
2022-08-20T16:06:55.090Z,5.35
2022-08-20T16:09:46.320Z,4.65
2022-08-20T16:12:20.416Z,5.30
2022-08-20T16:15:01.569Z,4.50
2022-08-20T16:17:38.888Z,4.22
2022-08-20T16:20:14.728Z,4.85
2022-08-20T16:22:45.651Z,5.18
2022-08-20T16:25:15.841Z,5.78
2022-08-20T16:27:53.291Z,5.40
2022-08-20T16:30:29.836Z,5.47
2022-08-20T16:33:04.145Z,7.93
2022-08-20T16:35:36.348Z,8.63
2022-08-20T16:38:12.079Z,9.35
2022-08-20T16:40:49.746Z,11.43
2022-08-20T16:43:22.739Z,10.35
2022-08-20T16:45:56.390Z,11.25
2022-08-20T16:48:31.500Z,11.20
2022-08-20T16:51:07.502Z,9.80
2022-08-20T16:53:36.671Z,11.70
2022-08-20T16:56:06.381Z,8.07
2022-08-20T16:58:34.675Z,7.88
2022-08-20T17:01:12.261Z,6.53
2022-08-20T17:03:49.965Z,5.78
2022-08-20T17:06:27.970Z,6.32
2022-08-20T17:08:56.904Z,6.15
2022-08-20T17:11:32.008Z,6.88
2022-08-20T17:14:10.882Z,6.65
2022-08-20T17:16:43.244Z,8.20
2022-08-20T17:19:19.487Z,8.45
2022-08-20T17:21:50.660Z,9.27
2022-08-20T17:24:25.326Z,9.77
2022-08-20T17:27:00.256Z,9.45
2022-08-20T17:29:31.359Z,10.70
2022-08-20T17:32:01.622Z,11.15
2022-08-20T17:34:43.352Z,10.30
2022-08-20T17:37:22.563Z,10.45
2022-08-20T17:39:54.419Z,9.15
2022-08-20T17:42:25.679Z,9.15
2022-08-20T17:45:12.488Z,9.23
2022-08-20T17:47:44.300Z,8.73
2022-08-20T17:50:17.303Z,8.95
2022-08-20T17:52:50.217Z,8.13
2022-08-20T17:55:20.204Z,7.45
2022-08-20T17:57:52.460Z,7.65
2022-08-20T18:00:25.363Z,7.35
2022-08-20T18:02:58.725Z,7.20
2022-08-20T18:05:30.503Z,7.15
2022-08-20T18:08:12.531Z,6.75
2022-08-20T18:10:52.215Z,6.68
2022-08-20T18:13:26.633Z,7.55
2022-08-20T18:15:58.471Z,6.85
2022-08-20T18:18:32.108Z,7.93
2022-08-20T18:21:21.624Z,6.78
2022-08-20T18:23:56.770Z,5.93
2022-08-20T18:26:29.576Z,6.78
2022-08-20T18:29:04.849Z,6.32
2022-08-20T18:31:41.429Z,6.53
2022-08-20T18:34:14.955Z,6.90
2022-08-20T18:36:54.048Z,7.88
2022-08-20T18:39:29.498Z,7.40
2022-08-20T18:42:01.569Z,6.55
2022-08-20T18:44:37.225Z,6.80
2022-08-20T18:47:08.885Z,7.90
2022-08-20T18:49:40.736Z,6.95
2022-08-20T18:52:12.406Z,7.20
2022-08-20T18:54:52.212Z,7.78
2022-08-20T18:57:24.341Z,6.15
2022-08-20T18:59:58.339Z,6.72
2022-08-20T19:02:32.586Z,6.63
2022-08-20T19:05:03.394Z,6.45
2022-08-20T19:07:47.234Z,7.28
2022-08-20T19:10:35.553Z,5.85
2022-08-20T19:13:28.936Z,6.30
2022-08-20T19:16:02.654Z,6.93
2022-08-20T19:18:38.540Z,5.53
2022-08-20T19:21:15.554Z,6.38
2022-08-20T19:23:51.248Z,6.10
2022-08-20T19:26:25.791Z,6.22
2022-08-20T19:28:58.792Z,5.55
2022-08-20T19:31:29.307Z,6.05
2022-08-20T19:34:19.642Z,6.68
2022-08-20T19:36:58.773Z,6.50
2022-08-20T19:39:31.557Z,6.55
2022-08-20T19:42:04.315Z,7.00
2022-08-20T19:44:39.230Z,6.90
2022-08-20T19:47:19.424Z,6.30
2022-08-20T19:50:05.160Z,6.63
2022-08-20T19:52:41.478Z,6.38
2022-08-20T19:55:21.585Z,6.20
2022-08-20T19:57:56.789Z,6.47
2022-08-20T20:00:28.463Z,6.68
2022-08-20T20:02:57.320Z,6.57
2022-08-20T20:05:26.445Z,6.93
2022-08-20T20:07:59.560Z,7.03
2022-08-20T20:10:32.642Z,6.93
2022-08-20T20:13:09.989Z,7.20
2022-08-20T20:15:39.982Z,6.70
2022-08-20T20:18:09.641Z,6.40
2022-08-20T20:20:57.301Z,7.18
2022-08-20T20:23:38.730Z,7.70
2022-08-20T20:26:19.714Z,6.70
2022-08-20T20:28:52.759Z,6.55
2022-08-20T20:31:25.176Z,7.15
2022-08-20T20:33:56.368Z,6.65
2022-08-20T20:36:37.439Z,6.63
2022-08-20T20:39:12.400Z,7.15
2022-08-20T20:41:52.342Z,6.65
2022-08-20T20:44:25.318Z,6.32
2022-08-20T20:46:58.464Z,6.80
2022-08-20T20:49:30.197Z,6.10
2022-08-20T20:52:01.482Z,6.50
2022-08-20T20:54:41.348Z,6.13
2022-08-20T20:57:37.788Z,7.45
2022-08-20T21:00:12.615Z,7.03
2022-08-20T21:02:41.065Z,6.65
2022-08-20T21:05:11.533Z,8.93
2022-08-20T21:07:50.566Z,6.47
2022-08-20T21:10:22.752Z,7.15
2022-08-20T21:12:53.214Z,6.88
2022-08-20T21:15:25.677Z,6.38
2022-08-20T21:17:55.060Z,6.60
2022-08-20T21:20:23.931Z,6.22
2022-08-20T21:22:52.360Z,7.13
2022-08-20T21:25:21.355Z,6.95
2022-08-20T21:27:52.674Z,6.40
2022-08-20T21:30:23.850Z,7.63
2022-08-20T21:32:53.534Z,6.25
2022-08-20T21:35:22.472Z,7.13
2022-08-20T21:37:51.428Z,6.65
2022-08-20T21:40:21.700Z,7.30
2022-08-20T21:42:51.274Z,6.82
2022-08-20T21:45:20.213Z,7.50
2022-08-20T21:47:50.132Z,6.78
2022-08-20T21:50:19.889Z,6.53
2022-08-20T21:52:55.195Z,7.22
2022-08-20T21:55:29.355Z,6.22
2022-08-20T21:57:59.022Z,6.00
2022-08-20T22:00:54.017Z,6.20
2022-08-20T22:03:25.471Z,6.38
2022-08-20T22:05:54.156Z,6.50
2022-08-20T22:08:24.263Z,7.15
2022-08-20T22:10:57.881Z,6.03
2022-08-20T22:13:31.320Z,6.72
2022-08-20T22:16:00.082Z,7.65
2022-08-20T22:18:30.017Z,6.53
2022-08-20T22:20:58.659Z,7.03
2022-08-20T22:23:27.275Z,7.28
2022-08-20T22:25:55.676Z,8.63
2022-08-20T22:28:24.284Z,7.20
2022-08-20T22:30:52.700Z,8.60
2022-08-20T22:33:23.334Z,7.30
2022-08-20T22:35:55.821Z,8.32
2022-08-20T22:38:25.419Z,8.38
2022-08-20T22:40:54.078Z,7.68
2022-08-20T22:43:23.184Z,8.20
2022-08-20T22:45:56.029Z,7.82
2022-08-20T22:48:24.495Z,8.70
2022-08-20T22:50:54.993Z,9.10
2022-08-20T22:53:27.155Z,8.77
2022-08-20T22:55:56.229Z,8.40
2022-08-20T22:58:30.876Z,8.85
2022-08-20T23:01:02.245Z,10.32
2022-08-20T23:03:39.821Z,9.57
2022-08-20T23:06:10.851Z,7.78
2022-08-20T23:08:39.576Z,10.15
2022-08-20T23:11:08.340Z,9.52
2022-08-20T23:13:36.807Z,8.85
2022-08-20T23:16:06.185Z,9.23
2022-08-20T23:18:34.710Z,9.68
2022-08-20T23:21:03.312Z,9.40
2022-08-20T23:23:33.522Z,9.95
2022-08-20T23:26:02.195Z,8.77
2022-08-20T23:28:31.080Z,9.38
2022-08-20T23:30:59.865Z,8.82
2022-08-20T23:33:28.314Z,9.65
2022-08-20T23:35:57.293Z,9.95
2022-08-20T23:38:25.783Z,8.10
2022-08-20T23:40:55.461Z,8.70
2022-08-20T23:43:24.191Z,9.07
2022-08-20T23:45:52.703Z,7.78
2022-08-20T23:48:21.187Z,7.75
2022-08-20T23:50:49.656Z,8.52
2022-08-20T23:53:18.116Z,7.82
2022-08-20T23:55:46.518Z,6.93
2022-08-20T23:58:16.589Z,8.48
